Aérodrome :
LOGIN :

S'inscrire | Disclaimer

   EN    FR    IT 

 










Légende :    VFR   VFR Marginal   IFR   IFR Intensif   IFR Très Intensif
Visi : 
Plafond : 
>= 8 km
>= 3000ft
5 à 8 km
1000 à 3000 ft
1500m à 5 km
500 à 1000 ft
800 à 1500m
200 à 500 ft
< 800m
< 200 ft
Symboles :   Orages  Brouillard  Fortes neiges  Fortes précipitations  Vent > 20 kt
SIGMETs :   Divers  Orages  Givrage  Turbulence  Onde Orograph.  Cendres Volcan.






- Altitude de l'aérodrome : 183 ft
- Code IATA : HAJ


EDDV - Hanover/Langenhagen Int.

DERNIER METAR :
  • 091820Z AUTO 10004KT 3800 BR BKN002 BKN020 M01/M01 Q1007 TEMPO 2000

METARs EXPIRÉS :
  • 091750Z AUTO 09003KT 050V150 2000 1200 R09L/P2000N R09R/P2000N BR BKN002 BKN020 M01/M01 Q1007 TEMPO 0900 FZFG
  • 091720Z AUTO 09004KT 1400 0900 R09L/1900N R09R/1900U BCFG BKN001 BKN021 M01/M02 Q1007 BECMG 0700 FZFG
  • 091650Z AUTO 08005KT 0700 0500 R09L/1200D R09R/P2000N FZFG SCT001 BKN021 M02/M02 Q1007 TEMPO 0500 VV002
  • 091620Z AUTO 11003KT 2100 0500 R09L/1600U R09R/P2000N BCFG FEW001 M02/M02 Q1006 TEMPO 1200
  • 091550Z AUTO 08002KT 2000 0400 R09L/0500N R09R/P2000N BCFG NCD M01/M01 Q1006 BECMG 2000

TAF TAF EDDV
Valide du 09 à 18h jusqu'au 10 à 18h UTC


091700Z 0918/1018 12005KT 6000 FEW015
BECMG 0918/0922 2500 BCFG BKN010
TEMPO 0918/1009 0600 FZFG VV002
PROB30
TEMPO 0918/1008 0300 FZFG VV001
BECMG 1009/1012 7000 SCT010
PROB40
TEMPO 1012/1018 BKN010



MET'MAP, la Météo Aéronautique d'un coup d'oeil ! - Copyright ORBIFLY Décembre 2007 - Disclaimer

ORBIFLY MET'MAP TEAM :

Programmation & Développement : Alexandra Zaïnal
Sur une idée originale de : Baudouin d'Aumeries
Soutien technique & logistique : Manuel Goepfert
Assistance : Marc-Olivier Méhu




SOURCES & CREDITS :

   NOAA